Time;durP1;ratioP1;P1;durP2;ratioP2;P2;SDS_P1;SDS_P2;PMS_P1;PMS_P2;Temp;Humidity;BMP_temperature;BMP_pressure;BME280_temperature;BME280_humidity;BME280_pressure;Samples;Min_cycle;Max_cycle;Signal;HPM_P1;HPM_P2
2021/12/10 00:01:57;;;;;;;67.40;29.55;;;4.20;99.90;;;;;;6190013;23;20013;-83
2021/12/10 00:04:29;;;;;;;61.38;27.60;;;4.20;99.90;;;;;;6165146;23;20578;-83
2021/12/10 00:06:59;;;;;;;64.30;29.35;;;4.20;99.90;;;;;;6188449;23;20017;-82
2021/12/10 00:09:30;;;;;;;58.33;28.33;;;4.20;99.90;;;;;;6189898;23;20021;-83
2021/12/10 00:12:11;;;;;;;62.45;29.20;;;4.30;99.90;;;;;;6162492;23;20477;-83
2021/12/10 00:14:37;;;;;;;64.05;28.10;;;4.30;99.90;;;;;;6187087;23;20021;-83
2021/12/10 00:17:06;;;;;;;55.28;27.95;;;4.30;99.90;;;;;;6188376;23;20016;-83
2021/12/10 00:19:41;;;;;;;60.63;27.48;;;4.30;99.90;;;;;;6188137;23;20108;-83
2021/12/10 00:22:13;;;;;;;52.95;24.25;;;4.30;99.90;;;;;;6165137;23;20017;-83
2021/12/10 00:24:40;;;;;;;49.53;23.90;;;4.30;99.90;;;;;;6189340;23;20096;-83
2021/12/10 00:27:08;;;;;;;56.88;24.48;;;4.30;99.90;;;;;;6162659;23;20096;-83
2021/12/10 00:29:36;;;;;;;54.63;24.75;;;4.30;99.90;;;;;;6163252;23;20013;-83
2021/12/10 00:32:15;;;;;;;53.55;25.75;;;4.30;99.90;;;;;;6187384;23;20017;-83
2021/12/10 00:34:49;;;;;;;53.20;24.15;;;4.30;99.90;;;;;;6163360;23;20021;-83
2021/12/10 00:37:16;;;;;;;45.67;24.50;;;4.30;99.90;;;;;;6186332;23;20013;-83
2021/12/10 00:39:49;;;;;;;48.25;23.50;;;4.30;99.90;;;;;;6189027;23;20013;-83
2021/12/10 00:42:18;;;;;;;46.17;23.02;;;4.30;99.90;;;;;;6163803;23;20017;-83
2021/12/10 00:44:45;;;;;;;46.58;22.58;;;4.30;99.90;;;;;;6186978;23;20043;-83
2021/12/10 00:47:11;;;;;;;47.80;22.58;;;4.30;99.90;;;;;;6162093;23;20461;-83
2021/12/10 00:49:37;;;;;;;44.13;22.53;;;4.30;99.90;;;;;;6161960;23;20111;-83
2021/12/10 00:52:05;;;;;;;48.07;23.33;;;4.30;99.90;;;;;;6188213;23;20009;-83
2021/12/10 00:54:31;;;;;;;45.13;23.08;;;4.30;99.90;;;;;;6161116;23;20017;-83
2021/12/10 00:56:57;;;;;;;45.77;21.53;;;4.30;99.90;;;;;;6186531;23;20152;-83
2021/12/10 00:59:22;;;;;;;44.13;21.50;;;4.20;99.90;;;;;;6184305;23;20028;-83
2021/12/10 01:01:50;;;;;;;41.27;21.53;;;4.20;99.90;;;;;;6137061;23;20021;-83
2021/12/10 01:04:26;;;;;;;41.72;22.23;;;4.20;99.90;;;;;;6185803;23;20233;-83
2021/12/10 01:06:53;;;;;;;46.88;22.98;;;4.20;99.90;;;;;;6185416;23;20017;-83
2021/12/10 01:09:29;;;;;;;48.40;24.55;;;4.30;99.90;;;;;;6136422;23;20327;-83
2021/12/10 01:12:03;;;;;;;46.63;24.40;;;4.30;99.90;;;;;;6185988;23;20092;-83
2021/12/10 01:25:51;;;;;;;58.33;27.55;;;4.10;99.90;;;;;;6164673;23;20091;-83
2021/12/10 01:28:17;;;;;;;55.30;26.67;;;4.10;99.90;;;;;;6185847;23;20013;-83
2021/12/10 01:30:43;;;;;;;55.53;27.67;;;4.10;99.90;;;;;;6136074;23;20017;-83
2021/12/10 01:33:16;;;;;;;59.63;27.63;;;4.10;99.90;;;;;;6136068;23;20013;-83
2021/12/10 01:35:51;;;;;;;60.72;28.90;;;4.10;99.90;;;;;;6159915;23;20052;-83
2021/12/10 01:38:18;;;;;;;;;;;4.10;99.90;;;;;;6186378;23;20012;-83
2021/12/10 01:40:48;;;;;;;53.30;25.50;;;4.10;99.90;;;;;;6185360;23;20424;-83
2021/12/10 01:43:23;;;;;;;52.95;26.00;;;4.10;99.90;;;;;;6185856;23;20021;-83
2021/12/10 01:45:54;;;;;;;52.25;25.40;;;4.10;99.90;;;;;;6185692;23;20016;-83
2021/12/10 01:48:31;;;;;;;47.47;24.65;;;4.10;99.90;;;;;;6160777;23;20509;-83
2021/12/10 01:50:58;;;;;;;45.20;24.38;;;4.10;99.90;;;;;;6184270;23;20446;-84
2021/12/10 01:53:29;;;;;;;55.75;23.92;;;4.10;99.90;;;;;;6159570;23;20021;-83
2021/12/10 01:55:57;;;;;;;45.88;23.30;;;4.10;99.90;;;;;;6159076;23;20017;-83
2021/12/10 01:58:25;;;;;;;49.88;23.15;;;4.10;99.90;;;;;;6183734;23;20052;-83
2021/12/10 02:01:00;;;;;;;39.45;21.67;;;4.10;99.90;;;;;;6185261;23;20342;-83
2021/12/10 02:03:26;;;;;;;40.90;22.30;;;4.10;99.90;;;;;;6183492;23;20020;-83
2021/12/10 02:05:52;;;;;;;42.70;21.47;;;4.10;99.90;;;;;;6158936;23;20017;-83
2021/12/10 02:08:18;;;;;;;37.28;19.10;;;4.10;99.90;;;;;;6134390;23;20017;-83
2021/12/10 02:10:44;;;;;;;39.45;19.63;;;4.20;99.90;;;;;;6183709;23;20027;-83
2021/12/10 02:13:10;;;;;;;39.10;19.13;;;4.20;99.90;;;;;;6158820;23;20036;-83
2021/12/10 02:15:36;;;;;;;36.28;18.42;;;4.20;99.90;;;;;;6157661;23;20366;-83
2021/12/10 02:18:04;;;;;;;40.22;18.77;;;4.20;99.90;;;;;;6133264;23;20020;-83
2021/12/10 02:20:55;;;;;;;30.55;18.52;;;4.20;99.90;;;;;;6183147;23;20020;-83
2021/12/10 02:23:22;;;;;;;42.63;20.05;;;4.20;99.90;;;;;;6137806;23;20056;-83
2021/12/10 02:25:48;;;;;;;36.20;19.20;;;4.20;99.90;;;;;;6182742;23;20020;-83
2021/12/10 02:28:14;;;;;;;31.65;17.10;;;4.20;99.90;;;;;;6133182;23;20381;-83
2021/12/10 02:30:42;;;;;;;33.05;17.60;;;4.20;99.90;;;;;;6157961;23;20013;-83
2021/12/10 02:33:08;;;;;;;34.90;16.60;;;4.20;99.90;;;;;;6181952;23;20272;-83
2021/12/10 02:35:34;;;;;;;30.38;16.45;;;4.20;99.90;;;;;;6132632;23;20564;-83
2021/12/10 02:38:00;;;;;;;35.72;17.05;;;4.20;99.90;;;;;;6157645;23;20019;-83
2021/12/10 02:40:30;;;;;;;32.70;15.55;;;4.10;99.90;;;;;;6133785;23;20016;-83
2021/12/10 02:43:00;;;;;;;29.35;15.55;;;4.10;99.90;;;;;;6183451;23;20075;-83
2021/12/10 02:45:27;;;;;;;31.40;16.13;;;4.10;99.90;;;;;;6182222;23;20045;-83
2021/12/10 02:47:54;;;;;;;28.98;15.85;;;4.10;99.90;;;;;;6133661;23;20021;-83
2021/12/10 02:50:23;;;;;;;32.03;15.43;;;4.10;99.90;;;;;;6159045;23;20314;-83
2021/12/10 02:52:49;;;;;;;32.33;16.50;;;4.00;99.90;;;;;;6182660;23;20017;-83
2021/12/10 02:55:16;;;;;;;26.92;14.73;;;4.10;99.90;;;;;;6181866;23;20096;-83
2021/12/10 02:57:48;;;;;;;30.80;14.63;;;3.90;99.90;;;;;;6155891;23;20318;-84
2021/12/10 03:00:18;;;;;;;29.05;15.48;;;4.00;99.90;;;;;;6181349;23;20040;-84
2021/12/10 03:02:44;;;;;;;31.08;15.73;;;4.00;99.90;;;;;;6156747;23;20039;-84
2021/12/10 03:05:11;;;;;;;30.50;15.50;;;3.90;99.90;;;;;;6181706;23;20659;-84
2021/12/10 03:07:40;;;;;;;29.40;16.65;;;3.90;99.90;;;;;;6181136;23;20024;-84
2021/12/10 03:10:11;;;;;;;25.75;14.52;;;3.90;99.90;;;;;;6182511;23;20207;-84
2021/12/10 03:12:37;;;;;;;27.33;15.65;;;3.90;99.90;;;;;;6182247;23;20017;-84
2021/12/10 03:15:04;;;;;;;31.67;14.90;;;3.80;99.90;;;;;;6134574;23;20096;-84
2021/12/10 03:17:31;;;;;;;31.05;15.90;;;3.80;99.90;;;;;;6132815;23;20012;-83
2021/12/10 03:19:58;;;;;;;28.40;14.95;;;3.80;99.90;;;;;;6132941;23;20509;-83
2021/12/10 03:22:25;;;;;;;28.83;15.88;;;3.80;99.90;;;;;;6182383;23;20017;-84
2021/12/10 03:24:52;;;;;;;23.45;14.82;;;3.70;99.90;;;;;;6181306;23;20075;-84
2021/12/10 03:27:20;;;;;;;26.63;14.77;;;3.70;99.90;;;;;;6157688;23;20096;-84
2021/12/10 03:29:46;;;;;;;29.60;15.63;;;3.70;99.90;;;;;;6157509;23;20050;-84
2021/12/10 03:32:20;;;;;;;20.58;14.45;;;3.60;99.90;;;;;;6156655;23;20063;-84
2021/12/10 03:34:46;;;;;;;28.65;16.17;;;3.50;99.90;;;;;;6181638;23;20017;-84
2021/12/10 03:37:17;;;;;;;28.25;14.63;;;3.50;99.90;;;;;;6182086;23;20005;-84
2021/12/10 03:39:43;;;;;;;29.70;16.02;;;3.40;99.90;;;;;;6182967;23;20013;-84
2021/12/10 03:42:09;;;;;;;30.80;16.95;;;3.30;99.90;;;;;;6158683;23;20016;-83
2021/12/10 03:44:36;;;;;;;28.60;16.13;;;3.30;99.90;;;;;;6157116;23;20020;-83
2021/12/10 03:47:04;;;;;;;30.83;17.33;;;3.30;99.90;;;;;;6157957;23;20241;-84
2021/12/10 03:49:31;;;;;;;29.65;17.02;;;3.20;99.90;;;;;;6182324;23;20087;-83
2021/12/10 03:51:57;;;;;;;29.20;17.17;;;3.20;99.90;;;;;;6134960;23;20470;-83
2021/12/10 03:54:23;;;;;;;37.90;17.00;;;3.20;99.90;;;;;;6183104;23;20553;-83
2021/12/10 03:56:51;;;;;;;36.00;17.30;;;3.30;99.90;;;;;;6157632;23;20009;-83
2021/12/10 03:59:22;;;;;;;31.48;16.90;;;3.20;99.90;;;;;;6181696;23;20028;-83
2021/12/10 04:01:55;;;;;;;30.60;15.93;;;3.20;99.90;;;;;;6183747;23;20025;-84
2021/12/10 04:04:34;;;;;;;27.17;15.75;;;3.20;99.90;;;;;;6183019;23;20537;-84
2021/12/10 04:07:03;;;;;;;31.50;15.98;;;3.20;99.90;;;;;;6183775;23;20044;-83
2021/12/10 04:09:29;;;;;;;30.13;16.50;;;3.20;99.90;;;;;;6182371;23;20036;-83
2021/12/10 04:11:55;;;;;;;30.90;15.90;;;3.10;99.90;;;;;;6183286;23;20462;-83
2021/12/10 04:14:21;;;;;;;25.63;15.15;;;3.10;99.90;;;;;;6182439;23;20354;-84
2021/12/10 04:16:54;;;;;;;33.08;16.20;;;3.10;99.90;;;;;;6135518;23;20009;-84
2021/12/10 04:19:20;;;;;;;30.23;16.75;;;3.00;99.90;;;;;;6136550;23;20095;-84
2021/12/10 04:21:46;;;;;;;31.13;16.25;;;2.90;99.90;;;;;;6159734;23;20016;-84
2021/12/10 04:24:20;;;;;;;31.00;15.73;;;2.90;99.90;;;;;;6160074;23;20017;-84
2021/12/10 04:26:48;;;;;;;30.00;16.40;;;2.80;99.90;;;;;;6185291;23;20306;-84
2021/12/10 04:29:15;;;;;;;27.35;15.50;;;2.60;99.90;;;;;;6185091;23;20017;-84
2021/12/10 04:31:41;;;;;;;26.80;16.25;;;2.70;99.90;;;;;;6159591;23;20552;-84
2021/12/10 04:34:07;;;;;;;29.55;15.27;;;2.60;99.90;;;;;;6156730;23;20106;-84
2021/12/10 04:36:34;;;;;;;30.63;15.93;;;2.60;99.90;;;;;;6183102;23;20036;-84
2021/12/10 04:39:00;;;;;;;32.97;16.92;;;2.50;99.90;;;;;;6182935;23;20044;-84
2021/12/10 04:41:26;;;;;;;29.30;15.57;;;2.40;99.90;;;;;;6183444;23;20346;-84
2021/12/10 04:43:53;;;;;;;28.90;15.93;;;2.30;99.90;;;;;;6157870;23;20024;-84
2021/12/10 04:46:19;;;;;;;25.77;15.63;;;2.20;99.90;;;;;;6159365;23;20043;-84
2021/12/10 04:48:57;;;;;;;31.30;16.10;;;2.20;99.90;;;;;;6158931;23;20040;-84
2021/12/10 04:51:27;;;;;;;32.20;15.25;;;2.20;99.90;;;;;;6183945;23;20023;-84
2021/12/10 04:53:54;;;;;;;32.13;16.08;;;2.10;99.90;;;;;;6183117;23;20056;-84
2021/12/10 04:56:21;;;;;;;30.77;15.45;;;2.10;99.90;;;;;;6184117;23;20013;-84
2021/12/10 04:58:48;;;;;;;29.70;15.30;;;2.00;99.90;;;;;;6182813;23;20009;-84
2021/12/10 05:01:14;;;;;;;29.67;16.25;;;2.00;99.90;;;;;;6159115;23;20044;-84
2021/12/10 05:03:40;;;;;;;28.60;14.30;;;2.00;99.90;;;;;;6157909;23;20071;-84
2021/12/10 05:06:06;;;;;;;28.00;14.90;;;1.90;99.90;;;;;;6157863;23;20422;-84
2021/12/10 05:08:34;;;;;;;27.25;14.55;;;1.90;99.90;;;;;;6132960;23;20529;-84
2021/12/10 05:11:01;;;;;;;29.55;14.55;;;1.80;99.90;;;;;;6183494;23;20023;-84
2021/12/10 05:13:27;;;;;;;28.80;15.40;;;1.80;99.90;;;;;;6157682;23;20458;-84
2021/12/10 05:15:58;;;;;;;29.70;14.57;;;1.70;99.90;;;;;;6183464;23;20055;-84
2021/12/10 05:18:30;;;;;;;30.08;14.55;;;1.70;99.90;;;;;;6182558;23;20019;-84
2021/12/10 05:20:56;;;;;;;31.23;14.90;;;1.70;99.90;;;;;;6158738;23;20021;-84
2021/12/10 05:23:22;;;;;;;30.48;14.68;;;1.60;99.90;;;;;;6133709;23;20013;-83
2021/12/10 05:25:49;;;;;;;30.48;15.23;;;1.60;99.90;;;;;;6158154;23;20448;-83
2021/12/10 05:28:14;;;;;;;31.67;14.88;;;1.50;99.90;;;;;;6183361;23;20020;-83
2021/12/10 05:30:41;;;;;;;29.80;15.33;;;1.50;99.90;;;;;;6134289;23;20025;-83
2021/12/10 05:33:13;;;;;;;28.13;15.20;;;1.40;99.90;;;;;;6159331;23;20283;-83
2021/12/10 05:35:39;;;;;;;31.20;15.77;;;1.40;99.90;;;;;;6160170;23;20095;-83
2021/12/10 05:38:05;;;;;;;33.83;15.87;;;1.30;99.90;;;;;;6134808;23;20040;-84
2021/12/10 05:40:31;;;;;;;32.10;15.13;;;1.40;99.90;;;;;;6184455;23;20013;-84
2021/12/10 05:42:57;;;;;;;33.80;15.45;;;1.40;99.90;;;;;;6183564;23;20020;-84
2021/12/10 05:45:24;;;;;;;31.67;15.13;;;1.40;99.90;;;;;;6157606;23;20084;-84
2021/12/10 05:47:50;;;;;;;31.30;15.95;;;1.30;99.90;;;;;;6183718;23;20013;-84
2021/12/10 05:50:19;;;;;;;30.23;16.50;;;1.40;99.90;;;;;;6159289;23;20099;-84
2021/12/10 05:52:45;;;;;;;33.00;16.38;;;1.40;99.90;;;;;;6183079;23;20017;-84
2021/12/10 05:55:11;;;;;;;31.27;15.90;;;1.40;99.90;;;;;;6182473;23;20354;-84
2021/12/10 05:57:37;;;;;;;31.05;16.75;;;1.40;99.90;;;;;;6183210;23;20013;-84
2021/12/10 06:00:07;;;;;;;33.63;18.13;;;1.40;99.90;;;;;;6184388;23;20013;-84
2021/12/10 06:02:32;;;;;;;33.97;17.30;;;1.40;99.90;;;;;;6184612;23;20024;-84
2021/12/10 06:04:59;;;;;;;34.33;17.93;;;1.40;99.90;;;;;;6159021;23;20012;-84
2021/12/10 06:07:25;;;;;;;39.00;18.85;;;1.40;99.90;;;;;;6158099;23;20294;-84
2021/12/10 06:09:51;;;;;;;37.97;18.60;;;1.50;99.90;;;;;;6133577;23;20105;-84
2021/12/10 06:12:16;;;;;;;40.57;19.80;;;1.50;99.90;;;;;;6135469;23;20815;-84
2021/12/10 06:14:42;;;;;;;40.73;19.93;;;1.40;99.90;;;;;;6158301;23;20021;-84
2021/12/10 06:17:08;;;;;;;38.73;19.90;;;1.40;99.90;;;;;;6158759;23;20024;-84
2021/12/10 06:19:34;;;;;;;42.87;21.60;;;1.50;99.90;;;;;;6158103;23;20017;-84
2021/12/10 06:22:00;;;;;;;45.23;22.30;;;1.50;99.90;;;;;;6183642;23;20163;-84
2021/12/10 06:24:26;;;;;;;43.60;21.98;;;1.50;99.90;;;;;;6183008;23;20107;-84
2021/12/10 06:26:53;;;;;;;42.60;22.50;;;1.70;99.90;;;;;;6133203;23;20071;-83
2021/12/10 06:29:22;;;;;;;42.22;22.80;;;1.80;99.90;;;;;;6134337;23;20096;-83
2021/12/10 06:31:48;;;;;;;40.05;21.10;;;1.80;99.90;;;;;;6182650;23;20012;-83
2021/12/10 06:34:14;;;;;;;41.63;22.10;;;1.90;99.90;;;;;;6158128;23;20084;-83
2021/12/10 06:36:40;;;;;;;35.23;20.77;;;2.00;99.90;;;;;;6134134;23;20233;-83
2021/12/10 06:39:07;;;;;;;34.72;20.95;;;2.00;99.90;;;;;;6135188;23;20023;-83
2021/12/10 06:41:33;;;;;;;39.85;20.38;;;2.10;99.90;;;;;;6183831;23;20009;-83
2021/12/10 06:44:04;;;;;;;33.63;19.48;;;2.10;99.90;;;;;;6156352;23;20088;-83
2021/12/10 06:46:34;;;;;;;33.80;17.95;;;2.20;99.90;;;;;;6159696;23;20013;-83
2021/12/10 06:49:00;;;;;;;31.35;18.33;;;2.20;99.90;;;;;;6183434;23;20345;-83
2021/12/10 06:51:26;;;;;;;33.53;18.10;;;2.20;99.90;;;;;;6183442;23;20020;-83
2021/12/10 06:53:52;;;;;;;28.08;17.95;;;2.20;99.90;;;;;;6156585;23;20017;-83
2021/12/10 06:56:19;;;;;;;29.17;17.05;;;2.20;99.90;;;;;;6181980;23;20016;-83
2021/12/10 06:58:45;;;;;;;30.95;17.55;;;2.30;99.90;;;;;;6157826;23;20009;-84
2021/12/10 07:01:18;;;;;;;29.42;16.30;;;2.30;99.90;;;;;;6157716;23;20017;-84
2021/12/10 07:03:45;;;;;;;30.30;16.13;;;2.30;99.90;;;;;;6183572;23;20087;-84
2021/12/10 07:06:11;;;;;;;28.60;16.17;;;2.20;99.90;;;;;;6182528;23;20099;-84
2021/12/10 07:08:41;;;;;;;30.52;15.60;;;2.20;99.90;;;;;;6181258;23;20056;-84
2021/12/10 07:11:11;;;;;;;24.95;15.25;;;2.10;99.90;;;;;;6181743;23;20021;-84
2021/12/10 07:13:39;;;;;;;27.08;16.00;;;2.10;99.90;;;;;;6182015;23;20048;-84
2021/12/10 07:16:05;;;;;;;25.88;15.18;;;2.00;99.90;;;;;;6156168;23;20013;-84
2021/12/10 07:18:32;;;;;;;32.35;16.83;;;1.90;99.90;;;;;;6182280;23;20024;-84
2021/12/10 07:20:57;;;;;;;28.13;15.75;;;1.90;99.90;;;;;;6181433;23;20513;-84
2021/12/10 07:23:23;;;;;;;30.63;16.50;;;1.80;99.90;;;;;;6132193;23;20079;-84
2021/12/10 07:25:50;;;;;;;27.00;15.60;;;1.80;99.90;;;;;;6131433;23;20013;-84
2021/12/10 07:28:16;;;;;;;30.85;15.50;;;1.80;99.90;;;;;;6181905;23;20028;-84
2021/12/10 07:30:42;;;;;;;28.80;15.68;;;1.70;99.90;;;;;;6131783;23;20024;-84
2021/12/10 07:33:09;;;;;;;28.65;16.83;;;1.70;99.90;;;;;;6156180;23;20067;-84
2021/12/10 07:35:37;;;;;;;30.05;15.85;;;1.70;99.90;;;;;;6156231;23;20104;-84
2021/12/10 07:38:04;;;;;;;28.48;16.00;;;1.70;99.90;;;;;;6181401;23;20020;-84
2021/12/10 07:40:32;;;;;;;27.27;15.88;;;1.60;99.90;;;;;;6182339;23;20079;-84
2021/12/10 07:42:58;;;;;;;25.25;14.50;;;1.60;99.90;;;;;;6157131;23;20059;-84
2021/12/10 07:45:25;;;;;;;28.87;15.73;;;1.70;99.90;;;;;;6157347;23;20021;-84
2021/12/10 07:47:56;;;;;;;25.45;13.98;;;1.70;99.90;;;;;;6131445;23;20017;-84
2021/12/10 07:50:30;;;;;;;27.02;14.32;;;1.70;99.90;;;;;;6181104;23;20369;-84
2021/12/10 07:52:56;;;;;;;25.38;14.23;;;1.80;99.90;;;;;;6180835;23;20089;-84
2021/12/10 07:55:29;;;;;;;23.52;14.02;;;1.70;99.90;;;;;;6181278;23;20021;-84
2021/12/10 07:57:56;;;;;;;23.83;13.68;;;1.70;99.90;;;;;;6181033;23;20021;-84
2021/12/10 08:00:24;;;;;;;27.58;14.68;;;1.60;99.90;;;;;;6181737;23;20435;-84
2021/12/10 08:02:50;;;;;;;25.55;14.38;;;1.60;99.90;;;;;;6179947;23;20020;-84
2021/12/10 08:05:17;;;;;;;23.88;14.27;;;1.60;99.90;;;;;;6182274;23;20268;-84
2021/12/10 08:07:44;;;;;;;25.05;13.55;;;1.60;99.90;;;;;;6181022;23;20092;-84
2021/12/10 08:10:12;;;;;;;30.77;14.52;;;1.60;99.90;;;;;;6132059;23;20036;-84
2021/12/10 08:12:37;;;;;;;28.73;14.10;;;1.70;99.90;;;;;;6157669;23;20201;-84
2021/12/10 08:15:05;;;;;;;21.53;13.47;;;1.60;99.90;;;;;;6156047;23;20024;-84
2021/12/10 08:17:31;;;;;;;27.17;13.60;;;1.60;99.90;;;;;;6180942;23;20252;-84
2021/12/10 08:19:58;;;;;;;23.63;13.67;;;1.60;99.90;;;;;;6158185;23;20446;-84
2021/12/10 08:22:24;;;;;;;22.05;12.00;;;1.70;99.90;;;;;;6182648;23;20017;-84
2021/12/10 08:24:49;;;;;;;21.97;12.10;;;1.70;99.90;;;;;;6130940;23;20462;-84
2021/12/10 08:27:15;;;;;;;21.70;12.23;;;1.70;99.90;;;;;;6132858;23;20017;-84
2021/12/10 08:29:43;;;;;;;24.42;11.35;;;1.70;99.90;;;;;;6156996;23;20347;-84
2021/12/10 08:32:12;;;;;;;19.35;10.98;;;1.70;99.90;;;;;;6133470;23;20315;-84
2021/12/10 08:34:39;;;;;;;19.65;10.77;;;1.80;99.90;;;;;;6181477;23;20340;-84
2021/12/10 08:37:06;;;;;;;21.67;11.07;;;1.80;99.90;;;;;;6180489;23;20114;-84
2021/12/10 08:39:31;;;;;;;19.35;10.55;;;1.90;99.90;;;;;;6180917;23;20557;-84
2021/12/10 08:41:58;;;;;;;18.10;10.67;;;1.90;99.90;;;;;;6156969;23;20017;-84
2021/12/10 08:44:24;;;;;;;18.67;11.43;;;1.90;99.90;;;;;;6180035;23;20429;-84
2021/12/10 08:46:51;;;;;;;22.33;10.07;;;1.90;99.90;;;;;;6181980;23;20021;-84
2021/12/10 08:49:17;;;;;;;18.65;10.07;;;2.00;99.90;;;;;;6183528;23;20055;-84
2021/12/10 08:51:50;;;;;;;16.67;9.53;;;2.10;99.90;;;;;;6133004;23;20120;-84
2021/12/10 08:54:19;;;;;;;19.83;10.30;;;2.00;99.90;;;;;;6156156;23;20454;-84
2021/12/10 08:56:46;;;;;;;18.00;10.13;;;2.00;99.90;;;;;;6180523;23;20017;-84
2021/12/10 08:59:13;;;;;;;16.05;9.60;;;2.10;99.90;;;;;;6134548;23;20049;-84
2021/12/10 09:01:45;;;;;;;16.77;9.68;;;2.10;99.90;;;;;;6156113;23;20438;-83
2021/12/10 09:04:12;;;;;;;15.32;9.80;;;2.10;99.90;;;;;;6154938;23;20405;-83
2021/12/10 09:06:41;;;;;;;17.25;9.95;;;2.20;99.90;;;;;;6155997;23;20310;-83
2021/12/10 09:09:10;;;;;;;16.17;9.52;;;2.20;99.90;;;;;;6180547;23;20017;-83
2021/12/10 09:11:40;;;;;;;16.00;9.88;;;2.20;99.90;;;;;;6180592;23;20458;-83
2021/12/10 09:14:08;;;;;;;23.10;9.90;;;2.20;99.90;;;;;;6181678;23;20482;-83
2021/12/10 09:16:36;;;;;;;15.10;8.80;;;2.30;99.90;;;;;;6181552;23;20044;-83
2021/12/10 09:19:05;;;;;;;16.58;9.55;;;2.30;99.90;;;;;;6157336;23;20056;-83
2021/12/10 09:21:33;;;;;;;20.67;9.68;;;2.30;99.90;;;;;;6181539;23;20017;-83
2021/12/10 09:24:04;;;;;;;16.17;9.35;;;2.40;99.90;;;;;;6180718;23;20013;-83
2021/12/10 09:26:33;;;;;;;16.10;9.10;;;2.40;99.90;;;;;;6180590;23;20013;-83
2021/12/10 09:29:02;;;;;;;18.23;9.38;;;2.40;99.90;;;;;;6180081;23;20504;-83
2021/12/10 09:31:28;;;;;;;16.00;9.63;;;2.40;99.90;;;;;;6180736;23;20013;-83
2021/12/10 09:33:57;;;;;;;16.23;9.13;;;2.40;99.90;;;;;;6155339;23;20023;-83
2021/12/10 09:36:24;;;;;;;18.85;10.00;;;2.30;99.90;;;;;;6180229;23;20009;-83
2021/12/10 09:38:50;;;;;;;19.08;9.77;;;2.30;99.90;;;;;;6180583;23;20026;-83
2021/12/10 09:41:18;;;;;;;17.10;9.20;;;2.20;99.90;;;;;;6156199;23;20023;-83
2021/12/10 09:43:44;;;;;;;17.52;9.10;;;2.30;99.90;;;;;;6181237;23;20319;-83
2021/12/10 09:46:11;;;;;;;16.98;9.90;;;2.20;99.90;;;;;;6179540;23;20027;-83
2021/12/10 09:48:37;;;;;;;15.43;8.80;;;2.20;99.90;;;;;;6179692;23;20344;-83
2021/12/10 09:51:30;;;;;;;15.85;9.77;;;2.20;99.90;;;;;;6156366;23;20027;-83
2021/12/10 09:54:01;;;;;;;18.52;8.63;;;2.20;99.90;;;;;;6180521;23;20096;-83
2021/12/10 09:56:28;;;;;;;13.93;9.20;;;2.20;99.90;;;;;;6156317;23;20020;-83
2021/12/10 09:58:56;;;;;;;20.27;9.35;;;2.20;99.90;;;;;;6156597;23;20446;-83
2021/12/10 10:01:35;;;;;;;13.80;8.52;;;2.20;99.90;;;;;;6156293;23;20092;-83
2021/12/10 10:04:03;;;;;;;18.60;8.95;;;2.20;99.90;;;;;;6181546;23;20389;-83
2021/12/10 10:06:35;;;;;;;13.27;8.15;;;2.20;99.90;;;;;;6156714;23;20048;-83
2021/12/10 10:09:03;;;;;;;16.52;8.05;;;2.30;99.90;;;;;;6176806;23;20426;-83
2021/12/10 10:11:33;;;;;;;14.50;6.80;;;2.30;99.90;;;;;;6156053;23;20016;-83
2021/12/10 10:14:02;;;;;;;14.13;7.57;;;2.40;99.90;;;;;;6180643;23;20051;-83
2021/12/10 10:16:30;;;;;;;13.80;7.65;;;2.40;99.90;;;;;;6180272;23;20017;-83
2021/12/10 10:18:56;;;;;;;12.75;7.25;;;2.50;99.90;;;;;;6155440;23;20087;-83
2021/12/10 10:21:30;;;;;;;16.85;7.18;;;2.50;99.90;;;;;;6180999;23;20076;-83
2021/12/10 10:23:57;;;;;;;13.40;6.85;;;2.50;99.90;;;;;;6156223;23;20390;-83
2021/12/10 10:26:32;;;;;;;12.80;7.15;;;2.50;99.90;;;;;;6155480;23;20361;-83
2021/12/10 10:29:15;;;;;;;12.85;7.32;;;2.50;99.90;;;;;;6180666;23;20084;-83
2021/12/10 10:31:55;;;;;;;14.52;7.30;;;2.60;99.90;;;;;;6181171;23;20128;-83
2021/12/10 10:34:25;;;;;;;16.10;6.93;;;2.80;99.90;;;;;;6182226;23;20017;-83
2021/12/10 10:36:51;;;;;;;13.95;6.60;;;2.70;99.90;;;;;;6157630;23;20037;-83
2021/12/10 10:39:22;;;;;;;11.45;6.35;;;2.70;99.90;;;;;;6160162;23;20077;-83
2021/12/10 10:41:52;;;;;;;12.45;6.03;;;2.80;99.90;;;;;;6159784;23;20013;-83
2021/12/10 10:44:18;;;;;;;14.57;7.25;;;2.90;99.90;;;;;;6184947;23;20009;-83
2021/12/10 10:46:46;;;;;;;15.55;7.00;;;2.90;99.90;;;;;;6184030;23;20013;-83
2021/12/10 10:49:46;;;;;;;12.75;6.57;;;3.00;99.90;;;;;;6184785;23;20023;-83
2021/12/10 10:52:29;;;;;;;14.95;6.88;;;3.00;99.90;;;;;;6201407;23;20039;-83
2021/12/10 10:55:19;;;;;;;12.48;6.07;;;3.00;99.90;;;;;;6182891;23;20103;-83
2021/12/10 10:57:56;;;;;;;10.43;5.95;;;3.10;99.90;;;;;;6183454;23;20013;-83
2021/12/10 11:00:29;;;;;;;13.95;6.85;;;3.10;99.90;;;;;;6184183;23;20442;-83
2021/12/10 11:03:03;;;;;;;9.60;5.47;;;3.20;99.90;;;;;;6183585;23;20017;-83
2021/12/10 11:05:30;;;;;;;12.55;6.53;;;3.20;99.90;;;;;;6157761;23;20088;-84
2021/12/10 11:07:59;;;;;;;13.90;6.32;;;3.30;99.90;;;;;;6181585;23;20032;-84
2021/12/10 11:10:29;;;;;;;13.05;6.55;;;3.30;99.90;;;;;;6182572;23;20052;-84
2021/12/10 11:13:12;;;;;;;12.15;6.50;;;3.40;99.90;;;;;;6157005;23;20017;-84
2021/12/10 11:15:40;;;;;;;15.20;6.05;;;3.40;99.90;;;;;;6183007;23;20373;-84
2021/12/10 11:18:15;;;;;;;11.45;5.95;;;3.50;99.90;;;;;;6185308;23;20109;-83
2021/12/10 11:20:43;;;;;;;11.60;6.03;;;3.50;99.90;;;;;;6184701;23;20013;-83
2021/12/10 11:23:11;;;;;;;13.65;6.07;;;3.60;99.90;;;;;;6158355;23;20013;-83
2021/12/10 11:25:43;;;;;;;9.57;5.82;;;3.60;99.90;;;;;;6182968;23;20023;-83
2021/12/10 11:28:22;;;;;;;10.65;5.65;;;3.60;99.90;;;;;;6157608;23;20071;-83
2021/12/10 11:31:03;;;;;;;11.50;5.90;;;3.70;99.90;;;;;;6183103;23;20322;-83
2021/12/10 11:33:32;;;;;;;10.45;5.95;;;3.70;99.90;;;;;;6182503;23;20044;-83
2021/12/10 11:36:09;;;;;;;12.45;5.57;;;3.80;99.90;;;;;;6183396;23;20008;-83
2021/12/10 11:38:36;;;;;;;8.60;5.28;;;3.80;99.90;;;;;;6182811;23;20512;-83
2021/12/10 11:41:10;;;;;;;13.25;5.60;;;3.80;99.90;;;;;;6181153;23;20013;-84
2021/12/10 11:49:39;;;;;;;10.13;5.35;;;3.90;99.90;;;;;;6182405;23;20028;-83
2021/12/10 11:52:10;;;;;;;10.13;5.20;;;4.00;99.90;;;;;;6181071;23;20473;-83
2021/12/10 11:54:44;;;;;;;12.35;5.50;;;4.00;99.90;;;;;;6182421;23;20218;-83
2021/12/10 11:57:17;;;;;;;9.55;4.75;;;4.00;99.90;;;;;;6156758;23;20017;-83
2021/12/10 11:59:50;;;;;;;11.07;5.30;;;4.00;99.90;;;;;;6181703;23;20013;-83
2021/12/10 12:02:30;;;;;;;10.07;5.10;;;4.10;99.90;;;;;;6149868;23;20032;-83
2021/12/10 12:05:00;;;;;;;11.23;5.35;;;4.10;99.90;;;;;;6181213;23;20020;-83
2021/12/10 12:08:00;;;;;;;11.75;5.18;;;4.10;99.90;;;;;;6155850;23;20028;-83
2021/12/10 12:10:36;;;;;;;9.90;5.38;;;4.10;99.90;;;;;;6156976;23;20028;-83
2021/12/10 12:15:55;;;;;;;10.57;5.45;;;4.10;99.90;;;;;;6178033;23;20020;-84
2021/12/10 12:18:25;;;;;;;9.88;5.32;;;4.10;99.90;;;;;;6181365;23;20323;-84
2021/12/10 12:21:37;;;;;;;14.20;5.70;;;4.10;99.90;;;;;;6181050;23;20489;-84
2021/12/10 12:26:34;;;;;;;;;;;4.10;99.90;;;;;;6181672;23;20021;-84
2021/12/10 12:29:08;;;;;;;8.00;4.53;;;4.10;99.90;;;;;;6157156;23;19958;-84
2021/12/10 12:31:44;;;;;;;11.50;4.88;;;4.10;99.90;;;;;;6182000;23;20044;-84
2021/12/10 12:34:20;;;;;;;12.73;4.88;;;4.10;99.90;;;;;;6183703;23;20477;-84
2021/12/10 12:36:52;;;;;;;9.13;5.18;;;4.10;99.90;;;;;;6183564;23;20066;-84
2021/12/10 12:39:50;;;;;;;11.27;5.00;;;4.00;99.90;;;;;;6185339;23;20462;-84
2021/12/10 12:42:27;;;;;;;9.85;5.10;;;4.10;99.90;;;;;;6135280;23;20775;-84
2021/12/10 12:45:00;;;;;;;15.82;5.80;;;4.00;99.90;;;;;;6184766;23;20385;-84
2021/12/10 12:47:32;;;;;;;9.02;4.68;;;4.00;99.90;;;;;;6184372;23;20036;-84
2021/12/10 12:50:03;;;;;;;9.98;4.47;;;4.00;99.90;;;;;;6159314;23;20017;-84
2021/12/10 12:52:58;;;;;;;12.43;4.97;;;4.00;99.90;;;;;;6160762;23;20087;-83
2021/12/10 12:55:36;;;;;;;7.35;4.07;;;4.00;99.90;;;;;;6185375;23;20044;-83
2021/12/10 12:58:11;;;;;;;13.18;4.78;;;4.00;99.90;;;;;;6183854;23;20099;-83
2021/12/10 13:01:06;;;;;;;10.55;4.55;;;4.00;99.90;;;;;;6186675;23;20371;-83
2021/12/10 13:03:38;;;;;;;12.45;4.75;;;3.90;99.90;;;;;;6185660;23;20016;-83
2021/12/10 13:06:13;;;;;;;9.00;4.60;;;3.90;99.90;;;;;;6182906;23;20017;-84
2021/12/10 13:08:42;;;;;;;10.90;5.03;;;3.90;99.90;;;;;;6180724;23;20017;-84
2021/12/10 13:11:30;;;;;;;10.50;5.18;;;3.80;99.90;;;;;;6182657;23;20509;-84
2021/12/10 13:14:13;;;;;;;8.35;4.65;;;3.80;99.90;;;;;;6157158;23;20501;-84
2021/12/10 13:16:44;;;;;;;12.27;4.90;;;3.80;99.90;;;;;;6181959;23;20056;-84